Time;durP1;ratioP1;P1;durP2;ratioP2;P2;SDS_P1;SDS_P2;PMS_P1;PMS_P2;Temp;Humidity;BMP_temperature;BMP_pressure;BME280_temperature;BME280_humidity;BME280_pressure;Samples;Min_cycle;Max_cycle;Signal;HPM_P1;HPM_P2
2021/12/20 00:02:02;;;;;;;2.93;1.53;;;8.60;99.90;;;;;;4995469;28;20223;-94
2021/12/20 00:04:28;;;;;;;2.50;1.80;;;8.50;99.90;;;;;;4976880;28;20303;-93
2021/12/20 00:06:54;;;;;;;7.30;1.23;;;8.50;99.90;;;;;;4993576;28;20311;-95
2021/12/20 00:09:20;;;;;;;0.67;0.67;;;8.50;99.90;;;;;;4992716;28;20254;-93
2021/12/20 00:11:46;;;;;;;1.97;0.67;;;8.50;99.90;;;;;;4992432;28;20212;-91
2021/12/20 00:14:11;;;;;;;1.30;1.20;;;8.50;99.90;;;;;;4993054;28;20227;-94
2021/12/20 00:16:37;;;;;;;0.27;0.27;;;8.50;99.90;;;;;;4993886;28;20191;-95
2021/12/20 00:19:04;;;;;;;2.13;0.87;;;8.50;99.90;;;;;;4995414;28;20188;-95
2021/12/20 00:21:30;;;;;;;1.00;0.87;;;8.50;99.90;;;;;;5010534;28;20225;-95
2021/12/20 00:23:55;;;;;;;11.07;1.80;;;8.50;99.90;;;;;;4994327;28;20212;-92
2021/12/20 00:26:21;;;;;;;6.83;1.60;;;8.50;99.90;;;;;;4992475;28;20247;-90
2021/12/20 00:28:47;;;;;;;3.77;1.23;;;8.50;99.90;;;;;;4974929;28;20211;-91
2021/12/20 00:31:13;;;;;;;1.53;1.50;;;8.50;99.90;;;;;;4975655;28;20680;-92
2021/12/20 00:33:38;;;;;;;2.87;1.43;;;8.50;99.90;;;;;;4989625;28;20262;-92
2021/12/20 00:36:07;;;;;;;1.10;0.37;;;8.50;99.90;;;;;;4974564;28;20220;-91
2021/12/20 00:41:19;;;;;;;0.50;0.47;;;8.50;99.90;;;;;;4992647;28;20742;-96
2021/12/20 00:43:44;;;;;;;1.33;1.30;;;8.50;99.90;;;;;;4976202;28;20216;-93
2021/12/20 00:46:10;;;;;;;4.33;0.60;;;8.50;99.90;;;;;;4976462;28;20206;-94
2021/12/20 00:48:37;;;;;;;0.30;0.30;;;8.60;99.90;;;;;;4975287;28;20369;-94
2021/12/20 00:51:02;;;;;;;7.10;0.70;;;8.60;99.90;;;;;;4992112;28;20210;-93
2021/12/20 00:53:28;;;;;;;3.43;0.73;;;8.60;99.90;;;;;;4992143;28;20227;-90
2021/12/20 00:55:54;;;;;;;1.47;1.03;;;8.60;99.90;;;;;;4975435;28;20243;-93
2021/12/20 00:58:20;;;;;;;3.80;1.73;;;8.50;99.90;;;;;;4976597;28;20299;-91
2021/12/20 01:00:51;;;;;;;1.37;0.37;;;8.50;99.90;;;;;;4990889;28;20223;-92
2021/12/20 01:03:19;;;;;;;9.93;1.17;;;8.50;99.90;;;;;;4992311;28;20224;-95
2021/12/20 01:05:45;;;;;;;3.10;1.03;;;8.50;99.90;;;;;;4991241;28;20244;-93
2021/12/20 01:08:12;;;;;;;2.50;2.30;;;8.40;99.90;;;;;;4993806;28;20223;-93
2021/12/20 01:10:44;;;;;;;2.50;1.33;;;8.40;99.90;;;;;;4993565;28;20327;-94
2021/12/20 01:13:10;;;;;;;1.27;0.87;;;8.40;99.90;;;;;;5010011;28;20212;-93
2021/12/20 01:15:44;;;;;;;0.80;0.70;;;8.40;99.90;;;;;;4994569;28;20218;-94
2021/12/20 01:18:10;;;;;;;11.70;0.70;;;8.40;99.90;;;;;;5009121;28;20687;-91
2021/12/20 01:20:36;;;;;;;1.70;0.83;;;8.40;99.90;;;;;;4993671;28;20216;-94
2021/12/20 01:23:03;;;;;;;12.73;1.57;;;8.40;99.90;;;;;;4991933;28;20204;-92
2021/12/20 01:25:29;;;;;;;1.53;0.80;;;8.40;99.90;;;;;;4991588;28;20275;-94
2021/12/20 01:27:55;;;;;;;0.97;0.73;;;8.40;99.90;;;;;;4998619;28;20223;-93
2021/12/20 01:30:23;;;;;;;1.27;1.03;;;8.40;99.90;;;;;;4993669;28;20279;-92
2021/12/20 01:32:49;;;;;;;3.27;0.90;;;8.50;99.90;;;;;;4991961;28;20240;-92
2021/12/20 01:35:16;;;;;;;1.77;1.23;;;8.50;99.90;;;;;;4991293;28;20224;-93
2021/12/20 01:37:42;;;;;;;2.67;0.93;;;8.50;99.90;;;;;;5006411;28;20285;-92
2021/12/20 01:40:11;;;;;;;9.30;2.30;;;8.50;99.90;;;;;;4960005;28;20188;-95
2021/12/20 01:42:37;;;;;;;0.40;0.40;;;8.50;99.90;;;;;;4992124;28;20578;-94
2021/12/20 01:45:15;;;;;;;1.30;1.20;;;8.50;99.90;;;;;;4975665;28;20298;-95
2021/12/20 01:47:45;;;;;;;3.93;0.93;;;8.50;99.90;;;;;;5007940;28;20663;-95
2021/12/20 01:50:22;;;;;;;8.50;0.40;;;8.50;99.90;;;;;;4992583;28;20215;-95
2021/12/20 01:52:48;;;;;;;0.33;0.33;;;8.50;99.90;;;;;;4993596;28;20722;-93
2021/12/20 01:55:17;;;;;;;1.63;1.23;;;8.50;99.90;;;;;;4993309;28;20206;-93
2021/12/20 01:57:44;;;;;;;0.50;0.33;;;8.50;99.90;;;;;;4992947;28;20219;-92
2021/12/20 02:00:21;;;;;;;3.77;1.93;;;8.50;99.90;;;;;;4990941;28;20220;-93
2021/12/20 02:02:52;;;;;;;0.43;0.43;;;8.50;99.90;;;;;;5009856;28;20218;-95
2021/12/20 02:05:24;;;;;;;0.20;0.20;;;8.50;99.90;;;;;;4992546;28;20226;-91
2021/12/20 02:08:01;;;;;;;0.20;0.20;;;8.40;99.90;;;;;;4991525;28;20227;-94
2021/12/20 02:10:26;;;;;;;0.87;0.33;;;8.40;99.90;;;;;;4992758;28;20183;-95
2021/12/20 02:12:53;;;;;;;6.53;0.37;;;8.40;99.90;;;;;;4990368;28;20210;-95
2021/12/20 02:15:18;;;;;;;0.30;0.30;;;8.50;99.90;;;;;;4988393;28;20228;-94
2021/12/20 02:17:45;;;;;;;1.60;0.67;;;8.60;99.90;;;;;;4988189;28;20784;-93
2021/12/20 02:20:27;;;;;;;0.40;0.40;;;8.60;99.90;;;;;;4955132;28;20208;-92
2021/12/20 02:22:55;;;;;;;2.43;0.33;;;8.60;99.90;;;;;;5004051;28;20232;-91
2021/12/20 02:25:22;;;;;;;2.53;0.67;;;8.60;99.90;;;;;;5003900;28;20279;-91
2021/12/20 02:27:48;;;;;;;1.63;0.80;;;8.60;99.90;;;;;;5004124;28;20278;-91
2021/12/20 02:30:37;;;;;;;5.40;0.67;;;8.60;99.90;;;;;;4957738;28;20216;-93
2021/12/20 02:38:33;;;;;;;0.30;0.30;;;8.40;99.90;;;;;;4990213;28;20247;-92
2021/12/20 02:41:21;;;;;;;0.60;0.50;;;8.40;99.90;;;;;;4989386;28;20688;-94
2021/12/20 02:43:57;;;;;;;1.43;1.33;;;8.40;99.90;;;;;;5003539;28;20219;-94
2021/12/20 02:49:09;;;;;;;0.40;0.40;;;8.40;99.90;;;;;;4990254;28;20231;-94
2021/12/20 02:51:35;;;;;;;0.47;0.47;;;8.30;99.90;;;;;;5006445;28;20246;-94
2021/12/20 02:54:05;;;;;;;0.40;0.40;;;8.30;99.90;;;;;;4969159;28;20216;-94
2021/12/20 02:56:30;;;;;;;0.33;0.33;;;8.30;99.90;;;;;;4967944;28;20219;-95
2021/12/20 02:58:56;;;;;;;3.77;0.60;;;8.20;99.90;;;;;;4967701;28;20216;-95
2021/12/20 03:01:23;;;;;;;1.23;1.23;;;8.20;99.90;;;;;;4969361;28;20292;-91
2021/12/20 03:03:52;;;;;;;0.30;0.30;;;8.20;99.90;;;;;;4969145;28;20684;-93
2021/12/20 03:06:37;;;;;;;2.43;0.60;;;8.20;99.90;;;;;;4967770;28;20249;-95
2021/12/20 03:09:04;;;;;;;0.30;0.30;;;8.10;99.90;;;;;;4984980;28;20217;-95
2021/12/20 03:11:30;;;;;;;4.40;0.63;;;8.10;99.90;;;;;;4968243;28;20220;-92
2021/12/20 03:14:08;;;;;;;12.63;0.60;;;8.10;99.90;;;;;;4970711;28;20232;-92
2021/12/20 03:16:35;;;;;;;0.30;0.30;;;7.90;99.90;;;;;;4979517;28;20203;-94
2021/12/20 03:19:02;;;;;;;0.70;0.50;;;7.80;99.90;;;;;;4971341;28;20240;-94
2021/12/20 03:21:28;;;;;;;4.80;0.50;;;7.90;99.90;;;;;;4971277;28;20373;-94
2021/12/20 03:23:54;;;;;;;0.20;0.20;;;7.80;99.90;;;;;;4971332;28;20295;-93
2021/12/20 03:26:19;;;;;;;5.53;0.80;;;7.80;99.90;;;;;;4971541;28;20205;-94
2021/12/20 03:28:45;;;;;;;0.30;0.30;;;7.70;99.90;;;;;;4971507;28;20216;-94
2021/12/20 03:31:12;;;;;;;3.27;0.40;;;7.50;99.90;;;;;;4957254;28;20212;-93
2021/12/20 03:33:38;;;;;;;0.30;0.30;;;7.40;99.90;;;;;;4971511;28;20213;-94
2021/12/20 03:36:04;;;;;;;0.40;0.40;;;7.40;99.90;;;;;;4972517;28;20244;-95
2021/12/20 03:38:30;;;;;;;0.63;0.63;;;7.40;99.90;;;;;;4972801;28;20223;-94
2021/12/20 03:40:56;;;;;;;1.10;0.27;;;7.30;99.90;;;;;;4972217;28;20299;-92
2021/12/20 03:43:24;;;;;;;0.70;0.40;;;7.30;99.90;;;;;;4972357;28;20268;-90
2021/12/20 03:45:56;;;;;;;0.73;0.40;;;7.30;99.90;;;;;;4992246;28;20629;-94
2021/12/20 03:48:22;;;;;;;1.00;0.57;;;7.30;99.90;;;;;;4992390;28;20576;-95
2021/12/20 03:50:48;;;;;;;0.30;0.30;;;7.30;99.90;;;;;;4978356;28;20270;-95
2021/12/20 03:53:14;;;;;;;3.87;0.77;;;7.20;99.90;;;;;;4992567;28;20236;-95
2021/12/20 03:55:40;;;;;;;1.30;0.60;;;7.20;99.90;;;;;;4974114;28;20203;-94
2021/12/20 03:58:06;;;;;;;0.40;0.40;;;7.10;99.90;;;;;;4991074;28;20282;-95
2021/12/20 04:00:32;;;;;;;0.90;0.90;;;7.10;99.90;;;;;;4989539;28;20216;-91
2021/12/20 04:02:58;;;;;;;0.50;0.50;;;7.10;99.90;;;;;;4973870;28;20216;-93
2021/12/20 04:05:24;;;;;;;0.20;0.20;;;7.00;99.90;;;;;;4989607;28;20311;-90
2021/12/20 04:07:50;;;;;;;1.07;0.43;;;7.00;99.90;;;;;;4973713;28;20322;-91
2021/12/20 04:10:16;;;;;;;0.10;0.10;;;7.00;99.90;;;;;;4958445;28;20192;-95
2021/12/20 04:12:42;;;;;;;0.67;0.37;;;7.10;99.90;;;;;;4973258;28;20220;-91
2021/12/20 04:15:08;;;;;;;1.50;1.03;;;7.10;99.90;;;;;;4990126;28;20287;-94
2021/12/20 04:17:34;;;;;;;0.87;0.87;;;7.10;99.90;;;;;;4957511;28;20310;-94
2021/12/20 04:20:01;;;;;;;1.60;0.80;;;7.00;99.90;;;;;;4973141;28;20224;-93
2021/12/20 04:22:26;;;;;;;0.23;0.23;;;6.90;99.90;;;;;;4957528;28;20941;-94
2021/12/20 04:24:52;;;;;;;0.50;0.50;;;6.90;99.90;;;;;;4973411;28;20187;-94
2021/12/20 04:27:18;;;;;;;0.27;0.27;;;6.90;99.90;;;;;;4989394;28;20323;-92
2021/12/20 04:29:44;;;;;;;0.33;0.33;;;6.90;99.90;;;;;;4989333;28;20697;-94
2021/12/20 04:32:10;;;;;;;0.30;0.30;;;6.90;99.90;;;;;;4955950;28;20222;-94
2021/12/20 04:34:35;;;;;;;0.27;0.27;;;6.90;99.90;;;;;;4956555;28;20212;-94
2021/12/20 04:37:03;;;;;;;0.20;0.20;;;6.90;99.90;;;;;;4958867;28;20310;-96
2021/12/20 04:39:31;;;;;;;0.70;0.70;;;6.90;99.90;;;;;;4958190;28;20282;-93
2021/12/20 04:41:57;;;;;;;0.30;0.30;;;7.00;99.90;;;;;;4973475;28;20212;-96
2021/12/20 04:44:23;;;;;;;1.93;0.33;;;7.00;99.90;;;;;;4971132;28;20211;-93
2021/12/20 04:46:49;;;;;;;0.67;0.60;;;7.10;99.90;;;;;;4963645;28;20216;-94
2021/12/20 04:49:15;;;;;;;2.07;1.03;;;7.10;99.90;;;;;;4979935;28;20207;-95
2021/12/20 04:51:41;;;;;;;5.30;0.60;;;7.10;99.90;;;;;;4979495;28;20211;-96
2021/12/20 04:54:07;;;;;;;0.30;0.30;;;7.10;99.90;;;;;;4980603;28;20635;-92
2021/12/20 04:56:33;;;;;;;4.33;0.47;;;7.10;99.90;;;;;;4979242;28;20611;-91
2021/12/20 04:58:58;;;;;;;1.07;0.80;;;7.10;99.90;;;;;;4979072;28;20208;-93
2021/12/20 05:01:24;;;;;;;1.73;0.37;;;7.10;99.90;;;;;;4948001;28;20232;-93
2021/12/20 05:03:50;;;;;;;1.63;1.53;;;7.10;99.90;;;;;;4990263;28;20287;-93
2021/12/20 05:06:16;;;;;;;0.20;0.20;;;7.00;99.90;;;;;;4945951;28;21428;-92
2021/12/20 05:08:50;;;;;;;13.13;0.83;;;7.00;99.90;;;;;;4961797;28;20255;-90
2021/12/20 05:11:19;;;;;;;0.60;0.60;;;7.10;99.90;;;;;;4950222;28;20558;-93
2021/12/20 05:13:45;;;;;;;3.00;1.10;;;7.10;99.90;;;;;;4980721;28;20232;-94
2021/12/20 05:16:11;;;;;;;1.60;0.90;;;7.10;99.90;;;;;;4962997;28;20561;-91
2021/12/20 05:18:37;;;;;;;5.87;0.97;;;7.10;99.90;;;;;;4963240;28;20299;-92
2021/12/20 05:21:02;;;;;;;5.20;0.60;;;7.10;99.90;;;;;;4968096;28;20220;-93
2021/12/20 05:23:28;;;;;;;1.00;0.50;;;7.10;99.90;;;;;;4970625;28;20221;-92
2021/12/20 05:25:55;;;;;;;0.77;0.47;;;7.20;99.90;;;;;;4969811;28;20225;-91
2021/12/20 05:28:24;;;;;;;0.30;0.30;;;7.20;99.90;;;;;;4981702;28;20554;-93
2021/12/20 05:30:52;;;;;;;0.30;0.30;;;7.20;99.90;;;;;;4983502;28;20831;-93
2021/12/20 05:33:19;;;;;;;2.63;0.73;;;7.20;99.90;;;;;;4984468;28;20595;-93
2021/12/20 05:35:46;;;;;;;3.83;0.97;;;7.20;99.90;;;;;;4986433;28;20226;-92
2021/12/20 05:38:12;;;;;;;2.10;0.90;;;7.10;99.90;;;;;;4989385;28;20243;-93
2021/12/20 05:40:38;;;;;;;1.07;1.07;;;7.10;99.90;;;;;;4989152;28;20226;-91
2021/12/20 05:43:04;;;;;;;11.23;1.33;;;7.20;99.90;;;;;;4972669;28;20192;-91
2021/12/20 05:45:31;;;;;;;0.53;0.47;;;7.30;99.90;;;;;;4989156;28;20303;-95
2021/12/20 05:47:56;;;;;;;9.10;1.40;;;7.30;99.90;;;;;;4985785;28;20274;-95
2021/12/20 05:50:25;;;;;;;0.50;0.50;;;7.30;99.90;;;;;;4978340;28;20231;-94
2021/12/20 05:52:51;;;;;;;3.30;0.87;;;7.40;99.90;;;;;;4981858;28;20216;-93
2021/12/20 05:55:17;;;;;;;3.50;1.23;;;7.30;99.90;;;;;;4986322;28;20199;-93
2021/12/20 05:57:44;;;;;;;4.80;0.63;;;7.30;99.90;;;;;;4984709;28;20208;-91
2021/12/20 06:00:18;;;;;;;6.03;1.03;;;7.20;99.90;;;;;;4983980;28;20235;-93
2021/12/20 06:02:46;;;;;;;0.60;0.60;;;7.10;99.90;;;;;;4965463;28;20705;-93
2021/12/20 06:05:13;;;;;;;1.37;0.63;;;7.20;99.90;;;;;;4975504;28;20217;-91
2021/12/20 06:07:42;;;;;;;3.40;0.80;;;7.20;99.90;;;;;;4974205;28;20565;-90
2021/12/20 06:10:13;;;;;;;0.50;0.50;;;7.20;99.90;;;;;;4988466;28;20192;-95
2021/12/20 06:12:40;;;;;;;0.53;0.40;;;7.20;99.90;;;;;;4985258;28;20251;-93
2021/12/20 06:15:07;;;;;;;0.33;0.33;;;7.30;99.90;;;;;;4986894;28;20212;-92
2021/12/20 06:17:34;;;;;;;6.13;1.07;;;7.30;99.90;;;;;;5010052;28;20228;-90
2021/12/20 06:20:10;;;;;;;2.80;0.70;;;7.30;99.90;;;;;;4996572;28;20203;-91
2021/12/20 06:22:36;;;;;;;0.97;0.97;;;7.30;99.90;;;;;;4996078;28;20188;-90
2021/12/20 06:25:04;;;;;;;0.50;0.40;;;7.30;99.90;;;;;;5004306;28;20180;-91
2021/12/20 06:27:32;;;;;;;1.70;1.60;;;7.40;99.90;;;;;;4995922;28;20216;-91
2021/12/20 06:30:04;;;;;;;0.30;0.30;;;7.50;99.90;;;;;;4998180;28;20211;-91
2021/12/20 06:32:30;;;;;;;0.47;0.30;;;7.50;99.90;;;;;;4993746;28;20598;-93
2021/12/20 06:35:04;;;;;;;0.80;0.70;;;7.50;99.90;;;;;;4993039;28;20374;-91
2021/12/20 06:37:33;;;;;;;0.83;0.83;;;7.40;99.90;;;;;;4993635;28;20199;-92
2021/12/20 06:40:00;;;;;;;1.40;0.77;;;7.40;99.90;;;;;;4993117;28;20235;-91
2021/12/20 06:42:29;;;;;;;2.07;0.47;;;7.40;99.90;;;;;;4993161;28;20284;-92
2021/12/20 06:44:58;;;;;;;0.40;0.40;;;7.40;99.90;;;;;;4992638;28;20222;-93
2021/12/20 06:47:29;;;;;;;2.70;0.57;;;7.50;99.90;;;;;;4990291;28;20230;-93
2021/12/20 06:49:55;;;;;;;0.83;0.53;;;7.60;99.90;;;;;;4992435;28;20216;-93
2021/12/20 06:52:22;;;;;;;8.33;0.50;;;7.60;99.90;;;;;;4988195;28;20183;-93
2021/12/20 06:54:50;;;;;;;0.87;0.43;;;7.70;99.90;;;;;;4989816;28;20232;-92
2021/12/20 06:57:16;;;;;;;0.20;0.20;;;7.70;99.90;;;;;;4993290;28;20994;-94
2021/12/20 06:59:42;;;;;;;2.03;1.93;;;7.60;99.90;;;;;;4979575;28;20277;-90
2021/12/20 07:02:08;;;;;;;1.03;1.00;;;7.60;99.90;;;;;;4996695;28;20220;-92
2021/12/20 07:04:34;;;;;;;0.40;0.40;;;7.60;99.90;;;;;;4996014;28;20204;-94
2021/12/20 07:07:00;;;;;;;0.60;0.60;;;7.60;99.90;;;;;;4991027;28;20274;-90
2021/12/20 07:09:26;;;;;;;0.20;0.20;;;7.50;99.90;;;;;;5006028;28;20932;-89
2021/12/20 07:11:53;;;;;;;1.93;0.50;;;7.50;99.90;;;;;;4980209;28;20231;-91
2021/12/20 07:14:20;;;;;;;3.03;0.70;;;7.50;99.90;;;;;;4993063;28;20281;-92
2021/12/20 07:16:45;;;;;;;1.37;1.03;;;7.40;99.90;;;;;;4989260;28;20224;-92
2021/12/20 07:19:11;;;;;;;0.50;0.50;;;7.40;99.90;;;;;;4989232;28;20210;-95
2021/12/20 07:21:40;;;;;;;3.07;0.50;;;7.40;99.90;;;;;;4971955;28;20752;-92
2021/12/20 07:24:06;;;;;;;4.77;1.23;;;7.40;99.90;;;;;;4992350;28;20231;-94
2021/12/20 07:26:35;;;;;;;0.40;0.40;;;7.50;99.90;;;;;;5005197;28;20223;-89
2021/12/20 07:29:01;;;;;;;1.23;0.70;;;7.60;99.90;;;;;;4988953;28;20353;-91
2021/12/20 07:31:27;;;;;;;3.70;1.23;;;7.60;99.90;;;;;;4956774;28;20212;-92
2021/12/20 07:33:53;;;;;;;1.53;1.43;;;7.70;99.90;;;;;;4974064;28;20301;-94
2021/12/20 07:36:21;;;;;;;4.40;0.80;;;7.70;99.90;;;;;;4990228;28;20677;-93
2021/12/20 07:38:47;;;;;;;2.90;0.83;;;7.80;99.90;;;;;;4974222;28;20220;-93
2021/12/20 07:41:16;;;;;;;1.80;0.80;;;7.80;99.90;;;;;;4987758;28;20366;-93
2021/12/20 07:43:42;;;;;;;1.90;0.40;;;7.70;99.90;;;;;;4988468;28;20207;-93
2021/12/20 07:46:10;;;;;;;0.40;0.40;;;7.70;99.90;;;;;;4990871;28;20188;-93
2021/12/20 07:48:36;;;;;;;0.40;0.40;;;7.80;99.90;;;;;;4991239;28;20822;-92
2021/12/20 07:51:03;;;;;;;1.57;1.50;;;7.80;99.90;;;;;;4990380;28;20223;-93
2021/12/20 07:53:29;;;;;;;5.63;0.50;;;7.80;99.90;;;;;;4984521;28;20238;-94
2021/12/20 07:55:54;;;;;;;3.80;0.77;;;7.80;99.90;;;;;;4992031;28;20208;-93
2021/12/20 07:58:22;;;;;;;0.50;0.50;;;7.70;99.90;;;;;;4991999;28;20189;-95
2021/12/20 08:00:49;;;;;;;1.93;0.63;;;7.60;99.90;;;;;;4992684;28;20310;-93
2021/12/20 08:03:15;;;;;;;1.77;0.90;;;7.60;99.90;;;;;;4973815;28;20227;-94
2021/12/20 08:05:41;;;;;;;0.93;0.50;;;7.70;99.90;;;;;;4988456;28;20251;-92
2021/12/20 08:08:11;;;;;;;0.73;0.73;;;7.70;99.90;;;;;;5016504;28;20238;-95
2021/12/20 08:10:55;;;;;;;0.43;0.43;;;7.70;99.90;;;;;;5014891;28;20281;-95
2021/12/20 08:13:21;;;;;;;3.90;0.70;;;7.80;99.90;;;;;;4996158;28;20224;-94
2021/12/20 08:15:50;;;;;;;0.37;0.37;;;7.70;99.90;;;;;;4995513;28;20204;-94
2021/12/20 08:18:20;;;;;;;0.30;0.30;;;7.70;99.90;;;;;;4978078;28;21533;-95
2021/12/20 08:20:47;;;;;;;0.63;0.63;;;7.80;99.90;;;;;;4992449;28;20238;-93
2021/12/20 08:23:13;;;;;;;1.10;0.73;;;7.70;99.90;;;;;;4992336;28;20224;-94
2021/12/20 08:25:43;;;;;;;9.23;0.93;;;7.70;99.90;;;;;;4973310;28;20198;-95
2021/12/20 08:28:27;;;;;;;4.23;0.80;;;7.70;99.90;;;;;;4991369;28;20207;-95
2021/12/20 08:30:53;;;;;;;0.83;0.83;;;7.70;99.90;;;;;;4992589;28;20188;-92
2021/12/20 08:33:19;;;;;;;0.97;0.97;;;7.60;99.90;;;;;;4973727;28;20314;-95
2021/12/20 08:35:49;;;;;;;2.23;0.97;;;7.60;99.90;;;;;;4974098;28;20331;-94
2021/12/20 08:38:18;;;;;;;6.73;2.47;;;7.60;99.90;;;;;;4964839;28;20286;-94
2021/12/20 08:40:45;;;;;;;3.30;1.10;;;7.70;99.90;;;;;;4996658;28;20224;-92
2021/12/20 08:43:11;;;;;;;3.23;0.77;;;7.60;99.90;;;;;;5010405;28;20188;-94
2021/12/20 08:45:37;;;;;;;1.80;0.87;;;7.40;99.90;;;;;;4997063;28;20292;-95
2021/12/20 08:48:03;;;;;;;1.23;1.20;;;7.40;99.90;;;;;;4960540;28;20224;-93
2021/12/20 08:50:29;;;;;;;1.07;0.70;;;7.40;99.90;;;;;;4966358;28;20286;-95
2021/12/20 08:52:55;;;;;;;2.23;0.60;;;7.40;99.90;;;;;;4963620;28;20227;-95
2021/12/20 08:55:22;;;;;;;2.53;0.60;;;7.40;99.90;;;;;;4962432;28;20641;-93
2021/12/20 08:57:48;;;;;;;0.87;0.73;;;7.30;99.90;;;;;;4990669;28;20299;-96
2021/12/20 09:00:36;;;;;;;2.00;1.60;;;7.30;99.90;;;;;;4974537;28;20330;-95
2021/12/20 09:03:03;;;;;;;0.40;0.40;;;7.40;99.90;;;;;;4989543;28;20306;-92
2021/12/20 09:05:30;;;;;;;2.33;2.00;;;7.40;99.90;;;;;;4973448;28;20215;-95
2021/12/20 09:07:59;;;;;;;1.37;1.27;;;7.40;99.90;;;;;;4965258;28;20237;-95
2021/12/20 09:10:27;;;;;;;0.33;0.33;;;7.50;99.90;;;;;;4990726;28;20187;-95
2021/12/20 09:12:53;;;;;;;4.93;0.50;;;7.50;99.90;;;;;;4995538;28;20286;-94
2021/12/20 09:15:19;;;;;;;0.80;0.57;;;7.40;99.90;;;;;;4994221;28;21275;-94
2021/12/20 09:17:49;;;;;;;0.40;0.40;;;7.40;99.90;;;;;;4994036;28;20346;-96
2021/12/20 09:20:19;;;;;;;0.63;0.57;;;7.00;99.90;;;;;;4991534;28;20723;-96
2021/12/20 09:22:57;;;;;;;0.40;0.40;;;6.80;99.90;;;;;;4953328;28;20215;-94
2021/12/20 09:25:27;;;;;;;1.03;0.40;;;6.70;99.90;;;;;;4993960;28;21101;-94
2021/12/20 09:27:55;;;;;;;0.40;0.40;;;6.60;99.90;;;;;;4993488;28;20222;-95
2021/12/20 09:30:26;;;;;;;2.17;0.50;;;6.70;99.90;;;;;;4998360;28;20275;-93
2021/12/20 09:32:59;;;;;;;3.27;1.07;;;7.00;99.90;;;;;;4982888;28;20208;-95
2021/12/20 09:35:26;;;;;;;0.53;0.37;;;7.10;99.90;;;;;;4981638;28;20224;-94
2021/12/20 09:37:52;;;;;;;2.40;0.90;;;7.30;99.90;;;;;;4993985;28;20224;-93
2021/12/20 09:41:14;;;;;;;0.93;0.93;;;7.50;99.90;;;;;;4992747;28;20259;-93
2021/12/20 09:43:13;;;;;;;0.67;0.63;;;7.60;99.90;;;;;;4963979;28;20248;-93
2021/12/20 09:45:44;;;;;;;0.40;0.40;;;7.70;99.90;;;;;;5002108;28;20215;-93
2021/12/20 09:48:10;;;;;;;1.57;1.27;;;7.70;99.90;;;;;;4988198;28;20648;-92
2021/12/20 09:50:36;;;;;;;0.70;0.70;;;7.80;99.90;;;;;;4971462;28;20586;-93
2021/12/20 09:53:07;;;;;;;0.50;0.50;;;7.80;99.90;;;;;;4974263;28;20234;-96
2021/12/20 09:55:34;;;;;;;1.50;1.40;;;7.80;99.90;;;;;;4992371;28;20294;-93
2021/12/20 09:58:03;;;;;;;0.67;0.67;;;7.80;99.90;;;;;;4989913;28;20181;-95
2021/12/20 10:00:31;;;;;;;4.87;1.23;;;7.90;99.90;;;;;;4971836;28;20815;-92
2021/12/20 10:02:59;;;;;;;0.50;0.50;;;8.00;99.90;;;;;;4988713;28;20212;-95
2021/12/20 10:05:24;;;;;;;0.77;0.77;;;7.90;99.90;;;;;;4958391;28;20230;-92
2021/12/20 10:07:51;;;;;;;2.10;1.27;;;7.80;99.90;;;;;;4993292;28;20255;-94
2021/12/20 10:10:38;;;;;;;0.50;0.50;;;7.90;99.90;;;;;;4994291;28;20188;-94
2021/12/20 10:13:07;;;;;;;0.63;0.63;;;8.20;99.90;;;;;;5016676;28;20232;-91
2021/12/20 10:15:38;;;;;;;0.40;0.40;;;8.40;99.90;;;;;;4998118;28;20851;-91
2021/12/20 10:18:10;;;;;;;3.90;1.03;;;8.50;99.90;;;;;;5000303;28;20248;-94
2021/12/20 10:20:37;;;;;;;0.70;0.70;;;8.50;99.90;;;;;;5013161;28;20258;-95
2021/12/20 10:23:19;;;;;;;0.67;0.63;;;8.50;99.90;;;;;;4996486;28;20227;-94
2021/12/20 10:25:48;;;;;;;1.23;1.00;;;8.50;99.90;;;;;;4996016;28;20655;-95
2021/12/20 10:28:22;;;;;;;10.40;0.90;;;8.60;99.90;;;;;;4993892;28;20223;-93
2021/12/20 10:30:57;;;;;;;1.43;1.33;;;8.40;99.90;;;;;;4987233;28;20246;-92
2021/12/20 10:33:24;;;;;;;2.67;1.00;;;8.50;99.90;;;;;;5003000;28;20235;-94
2021/12/20 10:35:55;;;;;;;6.07;2.10;;;8.40;99.90;;;;;;4998102;28;20218;-93
2021/12/20 10:38:31;;;;;;;7.67;1.60;;;8.50;99.90;;;;;;5017180;28;20215;-96
2021/12/20 10:41:12;;;;;;;0.83;0.70;;;8.60;99.90;;;;;;4991883;28;20230;-96
2021/12/20 10:43:45;;;;;;;3.00;1.07;;;8.60;99.90;;;;;;4988588;28;20602;-91
2021/12/20 10:46:21;;;;;;;5.90;1.60;;;8.70;99.90;;;;;;5007765;28;20585;-94
2021/12/20 10:48:52;;;;;;;0.73;0.73;;;8.90;99.90;;;;;;4978791;28;20215;-94
2021/12/20 10:51:21;;;;;;;0.63;0.63;;;8.90;99.90;;;;;;4994883;28;20310;-92
2021/12/20 10:54:00;;;;;;;4.20;1.83;;;8.90;99.90;;;;;;4997722;28;20296;-92
2021/12/20 10:56:28;;;;;;;2.43;1.10;;;8.90;99.90;;;;;;5009015;28;20246;-94
2021/12/20 10:58:55;;;;;;;2.20;1.03;;;8.80;99.90;;;;;;5012131;28;20879;-93
2021/12/20 11:04:16;;;;;;;0.87;0.70;;;8.70;99.90;;;;;;4997975;28;20592;-96
2021/12/20 11:09:19;;;;;;;1.07;0.90;;;8.60;99.90;;;;;;4989617;28;20223;-94
2021/12/20 11:11:53;;;;;;;2.27;1.10;;;8.60;99.90;;;;;;5004477;28;20220;-96
2021/12/20 11:14:25;;;;;;;7.20;1.80;;;8.50;99.90;;;;;;4990028;28;20314;-94
2021/12/20 11:16:54;;;;;;;5.37;1.07;;;8.50;99.90;;;;;;4988217;28;20215;-93
2021/12/20 11:19:23;;;;;;;1.33;1.23;;;8.60;99.90;;;;;;4990167;28;20188;-94
2021/12/20 11:22:02;;;;;;;3.63;1.17;;;8.50;99.90;;;;;;4990391;28;20625;-95
2021/12/20 11:24:38;;;;;;;4.13;1.57;;;8.40;99.90;;;;;;4991843;28;20227;-96
2021/12/20 11:27:07;;;;;;;0.83;0.83;;;8.40;99.90;;;;;;4995610;28;20239;-93
2021/12/20 11:29:35;;;;;;;0.90;0.80;;;8.40;99.90;;;;;;4989529;28;21372;-93
2021/12/20 11:32:02;;;;;;;3.10;1.40;;;8.50;99.90;;;;;;4990868;28;20212;-93
2021/12/20 11:34:33;;;;;;;0.70;0.70;;;8.50;99.90;;;;;;5014157;28;20210;-94
2021/12/20 11:36:59;;;;;;;0.33;0.33;;;8.40;99.90;;;;;;4983143;28;20663;-93
2021/12/20 11:39:26;;;;;;;2.67;1.53;;;8.50;99.90;;;;;;4997800;28;20208;-93
2021/12/20 11:41:52;;;;;;;3.07;0.63;;;8.40;99.90;;;;;;5013532;28;20239;-95
2021/12/20 11:44:21;;;;;;;5.67;1.03;;;8.50;99.90;;;;;;4999151;28;20314;-93
2021/12/20 11:47:01;;;;;;;1.70;1.07;;;8.60;99.90;;;;;;4996438;28;20360;-96
2021/12/20 11:49:29;;;;;;;1.47;0.97;;;8.50;99.90;;;;;;4996454;28;20196;-93
2021/12/20 11:52:04;;;;;;;0.50;0.50;;;8.40;99.90;;;;;;4999837;28;20203;-96
2021/12/20 11:54:34;;;;;;;0.40;0.40;;;8.50;99.90;;;;;;4994467;28;20224;-92
2021/12/20 11:57:00;;;;;;;10.50;1.53;;;8.50;99.90;;;;;;4990244;28;20216;-93
2021/12/20 11:59:50;;;;;;;1.50;0.67;;;8.40;99.90;;;;;;4973814;28;20216;-93
2021/12/20 12:02:20;;;;;;;2.43;1.23;;;8.40;99.90;;;;;;4990528;28;20223;-91
2021/12/20 12:04:58;;;;;;;1.30;1.03;;;8.40;99.90;;;;;;5007470;28;20296;-92
2021/12/20 12:07:26;;;;;;;3.03;1.30;;;8.40;99.90;;;;;;4989638;28;20224;-91
2021/12/20 12:10:00;;;;;;;2.37;1.03;;;8.40;99.90;;;;;;5006937;28;20611;-92
2021/12/20 12:12:28;;;;;;;0.50;0.50;;;8.40;99.90;;;;;;4989849;28;20216;-91
2021/12/20 12:15:07;;;;;;;3.13;1.20;;;8.50;99.90;;;;;;4988880;28;20231;-91
2021/12/20 12:18:02;;;;;;;6.93;0.83;;;8.50;99.90;;;;;;4989111;28;20715;-92
2021/12/20 12:20:53;;;;;;;2.00;1.03;;;8.40;99.90;;;;;;4989113;28;20579;-93
2021/12/20 12:23:27;;;;;;;5.17;1.43;;;8.40;99.90;;;;;;4989131;28;20216;-91
2021/12/20 12:25:55;;;;;;;1.13;0.73;;;8.40;99.90;;;;;;4966692;28;20274;-93
2021/12/20 12:28:52;;;;;;;12.63;1.93;;;8.40;99.90;;;;;;5006098;28;20188;-92
2021/12/20 12:31:17;;;;;;;4.93;1.13;;;8.40;99.90;;;;;;4989422;28;20204;-92
2021/12/20 12:33:43;;;;;;;3.50;0.60;;;8.30;99.90;;;;;;4973101;28;20224;-93
2021/12/20 12:36:32;;;;;;;3.40;0.70;;;8.30;99.90;;;;;;4988383;28;20216;-93
2021/12/20 12:39:27;;;;;;;1.97;0.77;;;8.30;99.90;;;;;;5004468;28;20274;-92
2021/12/20 12:42:01;;;;;;;3.80;1.13;;;8.60;99.90;;;;;;4988663;28;20216;-93
2021/12/20 12:44:28;;;;;;;3.50;1.13;;;9.30;99.90;;;;;;5003880;28;20701;-92
2021/12/20 12:46:53;;;;;;;0.80;0.80;;;9.80;99.90;;;;;;4988528;28;20223;-92
2021/12/20 12:49:22;;;;;;;3.13;1.03;;;10.10;99.90;;;;;;4989700;28;20188;-92
2021/12/20 12:51:55;;;;;;;4.73;1.67;;;9.90;99.90;;;;;;4988855;28;20676;-92
2021/12/20 12:54:33;;;;;;;8.80;2.07;;;9.60;99.90;;;;;;5005346;28;20319;-92
2021/12/20 12:57:10;;;;;;;11.77;1.43;;;9.10;99.90;;;;;;4987739;28;20236;-92
2021/12/20 12:59:45;;;;;;;5.73;3.50;;;8.90;99.90;;;;;;4995111;28;20219;-92
2021/12/20 13:02:24;;;;;;;4.17;2.20;;;8.60;99.90;;;;;;4995608;28;20314;-92
2021/12/20 13:04:58;;;;;;;2.83;1.50;;;8.40;99.90;;;;;;4983384;28;20235;-91
2021/12/20 13:07:27;;;;;;;14.17;1.10;;;8.40;99.90;;;;;;4982191;28;20235;-91
2021/12/20 13:09:55;;;;;;;3.20;1.50;;;8.30;99.90;;;;;;4981340;28;20204;-90
2021/12/20 13:17:35;;;;;;;1.07;0.97;;;8.30;99.90;;;;;;4977980;28;20279;-91
2021/12/20 13:20:34;;;;;;;4.07;0.90;;;8.20;99.90;;;;;;4972039;28;20277;-92
2021/12/20 13:23:17;;;;;;;2.47;0.87;;;8.20;99.90;;;;;;4974251;28;20219;-92
2021/12/20 13:25:47;;;;;;;4.13;1.07;;;8.20;99.90;;;;;;4976508;28;20315;-90
2021/12/20 13:28:30;;;;;;;0.30;0.30;;;8.20;99.90;;;;;;4995764;28;20204;-94
2021/12/20 13:31:02;;;;;;;0.97;0.97;;;8.10;99.90;;;;;;4982351;28;20208;-95